Time;durP1;ratioP1;P1;durP2;ratioP2;P2;SDS_P1;SDS_P2;PMS_P1;PMS_P2;Temp;Humidity;BMP_temperature;BMP_pressure;BME280_temperature;BME280_humidity;BME280_pressure;Samples;Min_cycle;Max_cycle;Signal;HPM_P1;HPM_P2
2022/02/07 00:00:04;;;;;;;20.17;14.18;;;;;;;1.31;51.93;101054.47;2090176;28;20156;-66
2022/02/07 00:02:12;;;;;;;26.30;15.88;;;;;;;1.18;51.11;101017.56;2089931;28;20175;-66
2022/02/07 00:03:32;;;;;;;23.47;15.57;;;;;;;1.43;50.86;101054.31;2089889;28;20179;-66
2022/02/07 00:04:36;;;;;;;21.35;14.18;;;;;;;1.28;50.62;101036.88;2089664;28;20257;-66
2022/02/07 00:05:37;;;;;;;24.10;15.45;;;;;;;0.95;50.69;100973.81;2088589;28;20183;-66
2022/02/07 00:06:37;;;;;;;20.97;14.17;;;;;;;1.46;50.94;101048.94;2089029;28;20352;-66
2022/02/07 00:07:38;;;;;;;22.03;14.93;;;;;;;1.51;51.14;101045.13;2089398;28;20248;-66
2022/02/07 00:08:39;;;;;;;21.97;13.50;;;;;;;1.57;50.74;101054.59;2089434;28;20262;-66
2022/02/07 00:09:39;;;;;;;24.07;15.20;;;;;;;1.43;50.82;101022.34;2090052;28;20180;-66
2022/02/07 00:10:41;;;;;;;21.43;14.13;;;;;;;1.60;50.58;101042.94;2089038;28;20249;-66
2022/02/07 00:11:41;;;;;;;23.05;14.55;;;;;;;1.48;50.49;101023.97;2089301;28;20194;-66
2022/02/07 00:12:45;;;;;;;25.80;15.73;;;;;;;1.49;51.01;101020.13;2089704;28;20195;-66
2022/02/07 00:13:45;;;;;;;20.33;13.30;;;;;;;1.59;51.16;101031.22;2089983;28;20186;-66
2022/02/07 00:14:46;;;;;;;18.33;12.67;;;;;;;1.59;51.23;101028.50;2088827;28;20187;-66
2022/02/07 00:15:46;;;;;;;20.47;14.30;;;;;;;1.58;50.97;101023.38;2089863;28;20180;-66
2022/02/07 00:16:47;;;;;;;23.30;14.97;;;;;;;1.62;50.81;101025.06;2089573;28;20190;-66
2022/02/07 00:17:48;;;;;;;22.93;14.20;;;;;;;0.89;50.67;100925.34;2089975;28;20176;-66
2022/02/07 00:18:48;;;;;;;19.63;14.17;;;;;;;1.57;51.62;101006.22;2089880;28;20198;-66
2022/02/07 00:19:49;;;;;;;19.07;12.60;;;;;;;1.64;51.02;101021.97;2090013;28;20199;-66
2022/02/07 00:20:50;;;;;;;19.83;13.27;;;;;;;1.64;51.01;101019.22;2089520;28;20370;-66
2022/02/07 00:21:51;;;;;;;20.80;14.25;;;;;;;0.68;50.89;100895.69;2089968;28;20211;-66
2022/02/07 00:22:51;;;;;;;23.00;14.63;;;;;;;1.09;51.00;100963.16;2089014;28;20657;-66
2022/02/07 00:23:52;;;;;;;18.23;13.40;;;;;;;1.58;51.00;101035.13;2088292;28;20183;-66
2022/02/07 00:24:52;;;;;;;20.17;14.03;;;;;;;1.62;50.80;101021.53;2080943;28;20212;-66
2022/02/07 00:25:54;;;;;;;24.80;15.27;;;;;;;1.37;51.26;100985.56;2081234;28;20251;-66
2022/02/07 00:26:54;;;;;;;21.17;13.80;;;;;;;1.50;51.76;101022.47;2081371;28;20191;-66
2022/02/07 00:27:55;;;;;;;20.03;14.23;;;;;;;1.52;51.76;101012.00;2081568;28;20677;-66
2022/02/07 00:28:55;;;;;;;25.50;14.97;;;;;;;1.53;52.14;101042.81;2081707;28;20673;-66
2022/02/07 00:29:56;;;;;;;21.60;13.97;;;;;;;1.51;52.12;100990.50;2081691;28;20184;-66
2022/02/07 00:30:56;;;;;;;19.20;13.43;;;;;;;1.67;51.72;101007.56;2081316;28;20187;-66
2022/02/07 00:31:57;;;;;;;19.17;13.87;;;;;;;1.69;51.65;101005.28;2081607;28;20184;-66
2022/02/07 00:32:58;;;;;;;19.87;13.47;;;;;;;1.55;51.76;100981.19;2080902;28;20744;-66
2022/02/07 00:33:58;;;;;;;20.93;13.60;;;;;;;0.61;51.93;100827.38;2081653;28;20187;-66
2022/02/07 00:34:59;;;;;;;19.07;13.67;;;;;;;1.54;51.69;100978.84;2081043;28;20658;-66
2022/02/07 00:36:01;;;;;;;20.70;14.33;;;;;;;1.60;51.68;100967.25;2080726;28;20617;-66
2022/02/07 00:37:02;;;;;;;22.08;14.20;;;;;;;1.70;51.72;100980.28;2081048;28;20188;-66
2022/02/07 00:38:07;;;;;;;22.43;14.10;;;;;;;1.82;52.11;100998.47;2081641;28;20190;-66
2022/02/07 00:39:11;;;;;;;20.48;14.27;;;;;;;1.81;51.71;100988.69;2081342;28;20202;-66
2022/02/07 00:41:25;;;;;;;21.02;13.57;;;;;;;1.85;51.29;101003.97;2081149;28;20565;-66
2022/02/07 00:42:40;;;;;;;23.27;14.68;;;;;;;1.86;52.37;100996.59;2080940;28;20649;-66
2022/02/07 00:43:43;;;;;;;19.85;14.10;;;;;;;1.86;51.35;100996.59;2081236;28;20168;-66
2022/02/07 00:44:46;;;;;;;24.75;16.05;;;;;;;1.27;52.46;100914.38;2081047;28;20192;-66
2022/02/07 00:45:53;;;;;;;30.80;21.10;;;;;;;1.84;54.14;100998.88;2080771;28;20183;-66
2022/02/07 00:47:05;;;;;;;28.52;18.08;;;;;;;1.85;54.86;100998.50;2080158;28;20204;-66
2022/02/07 00:48:09;;;;;;;30.55;19.50;;;;;;;1.86;53.16;100991.13;2081093;28;20271;-66
2022/02/07 00:49:09;;;;;;;22.17;14.75;;;;;;;1.88;52.32;100994.25;2080768;28;20184;-66
2022/02/07 00:50:10;;;;;;;30.40;19.53;;;;;;;1.25;53.85;100895.63;2081691;28;20540;-66
2022/02/07 00:51:11;;;;;;;29.17;19.93;;;;;;;1.90;56.41;100992.75;2081059;28;20241;-66
2022/02/07 00:52:11;;;;;;;21.90;14.65;;;;;;;1.92;52.88;100995.91;2081583;28;20188;-66
2022/02/07 00:53:13;;;;;;;25.23;16.10;;;;;;;0.69;52.60;100803.75;2080707;28;20188;-66
2022/02/07 00:54:14;;;;;;;21.83;14.38;;;;;;;1.94;52.23;100981.88;2080406;28;20181;-66
2022/02/07 00:55:15;;;;;;;26.05;17.55;;;;;;;1.96;52.67;100990.50;2080681;28;20240;-66
2022/02/07 00:56:15;;;;;;;26.37;17.23;;;;;;;1.97;53.63;100981.94;2081345;28;20172;-66
2022/02/07 00:57:16;;;;;;;22.60;15.47;;;;;;;1.08;52.73;100840.72;2079739;28;20211;-66
2022/02/07 00:58:17;;;;;;;18.27;12.87;;;;;;;1.96;51.11;100988.56;2081086;28;20181;-66
2022/02/07 00:59:17;;;;;;;22.50;14.53;;;;;;;1.98;50.64;100983.53;2081358;28;20423;-66
2022/02/07 01:00:19;;;;;;;21.93;13.97;;;;;;;1.72;50.16;100958.09;2081456;28;20658;-66
2022/02/07 01:01:19;;;;;;;21.13;13.50;;;;;;;1.93;51.02;100975.63;2084491;28;20205;-66
2022/02/07 01:02:20;;;;;;;20.30;13.97;;;;;;;1.88;51.63;100966.94;2089123;28;20264;-66
2022/02/07 01:03:21;;;;;;;26.50;17.37;;;;;;;1.88;52.58;100972.41;2089696;28;20659;-66
2022/02/07 01:04:21;;;;;;;23.65;15.27;;;;;;;1.85;52.75;100973.91;2089366;28;20295;-66
2022/02/07 01:05:22;;;;;;;21.17;13.97;;;;;;;1.86;52.02;101000.09;2088871;28;20176;-66
2022/02/07 01:06:23;;;;;;;23.00;16.17;;;;;;;1.89;52.09;100963.84;2089125;28;20267;-66
2022/02/07 01:07:23;;;;;;;26.27;17.80;;;;;;;1.88;54.48;100959.53;2089323;28;20256;-66
2022/02/07 01:08:45;;;;;;;27.63;17.87;;;;;;;1.87;54.49;100959.91;2089225;28;20168;-66
2022/02/07 01:09:51;;;;;;;25.40;15.65;;;;;;;1.87;54.49;100959.91;2089585;28;20244;-66
2022/02/07 01:11:04;;;;;;;28.25;18.48;;;;;;;1.69;54.80;100932.28;2088664;28;20274;-66
2022/02/07 01:13:22;;;;;;;33.50;21.70;;;;;;;1.73;55.28;100951.47;2088958;28;20191;-66
2022/02/07 01:20:33;;;;;;;30.55;20.20;;;;;;;1.86;54.68;100941.94;2088584;28;20164;-66
2022/02/07 01:49:28;;;;;;;38.92;23.95;;;;;;;1.86;56.16;100918.09;2089206;28;20183;-66
2022/02/07 01:55:32;;;;;;;28.75;16.48;;;;;;;1.85;53.82;100910.31;2088407;28;20156;-66
2022/02/07 01:56:35;;;;;;;32.63;20.58;;;;;;;1.71;54.77;100899.13;2088662;28;20164;-66
2022/02/07 01:57:35;;;;;;;28.20;17.55;;;;;;;1.77;54.47;100925.78;2088717;28;20179;-66
2022/02/07 01:58:36;;;;;;;37.53;19.20;;;;;;;0.48;53.37;100699.75;2089238;28;20183;-67
2022/02/07 01:59:37;;;;;;;44.83;24.57;;;;;;;1.86;55.00;100895.47;2089226;28;20266;-67
2022/02/07 02:00:40;;;;;;;42.88;25.67;;;;;;;1.89;55.63;100901.00;2088542;28;20257;-67
2022/02/07 02:01:41;;;;;;;45.30;17.75;;;;;;;1.90;54.12;100901.78;2088980;28;20679;-66
2022/02/07 02:02:41;;;;;;;47.73;24.87;;;;;;;1.86;55.70;100890.78;2089104;28;20591;-66
2022/02/07 02:03:42;;;;;;;42.63;23.00;;;;;;;1.94;55.53;100891.69;2089267;28;20251;-66
2022/02/07 02:04:42;;;;;;;41.40;25.40;;;;;;;1.88;56.64;100895.88;2088665;28;20594;-67
2022/02/07 02:05:43;;;;;;;41.80;22.20;;;;;;;1.21;56.08;100803.91;2089011;28;20174;-67
2022/02/07 02:06:44;;;;;;;40.30;26.63;;;;;;;1.88;56.98;100896.69;2088629;28;20736;-66
2022/02/07 02:07:48;;;;;;;43.33;26.80;;;;;;;1.88;57.42;100899.41;2088494;28;20202;-66
2022/02/07 02:08:49;;;;;;;45.78;21.77;;;;;;;1.84;54.93;100895.84;2089056;28;20259;-66
2022/02/07 02:09:50;;;;;;;38.83;21.87;;;;;;;1.77;54.56;100890.28;2089285;28;20179;-66
2022/02/07 02:10:54;;;;;;;48.13;30.37;;;;;;;1.80;57.77;100895.00;2088887;28;20171;-66
2022/02/07 02:11:55;;;;;;;51.00;31.63;;;;;;;1.57;59.73;100880.59;2088167;28;20168;-66
2022/02/07 02:14:25;;;;;;;46.80;30.05;;;;;;;0.90;60.38;100747.66;2089280;28;20187;-67
2022/02/07 02:15:41;;;;;;;45.03;30.08;;;;;;;1.73;59.57;100858.56;2088162;28;20192;-66
2022/02/07 02:32:45;;;;;;;43.42;26.73;;;;;;;2.11;56.61;100861.88;2088604;28;20198;-67
2022/02/07 02:37:44;;;;;;;41.28;24.70;;;;;;;1.96;56.69;100849.16;2088805;28;20169;-67
2022/02/07 02:45:30;;;;;;;40.47;20.77;;;;;;;1.13;52.63;100698.50;2080226;28;20173;-67
2022/02/07 02:46:31;;;;;;;35.67;21.52;;;;;;;1.70;53.25;100789.06;2080923;28;20223;-67
2022/02/07 02:47:34;;;;;;;35.73;22.40;;;;;;;1.31;53.41;100733.09;2082179;28;20239;-67
2022/02/07 02:48:41;;;;;;;38.03;22.83;;;;;;;1.96;54.36;100837.47;2082394;28;20255;-67
2022/02/07 02:49:47;;;;;;;40.10;22.38;;;;;;;1.93;53.80;100825.31;2081890;28;20173;-67
2022/02/07 02:50:50;;;;;;;35.13;21.65;;;;;;;1.93;53.82;100822.59;2081981;28;20215;-67
2022/02/07 02:51:51;;;;;;;39.17;21.63;;;;;;;0.58;54.03;100604.50;2082264;28;20595;-67
2022/02/07 02:52:51;;;;;;;35.87;21.63;;;;;;;1.99;53.89;100821.09;2082322;28;20181;-67
2022/02/07 02:53:52;;;;;;;37.23;21.23;;;;;;;1.97;54.04;100828.91;2081725;28;20184;-67
2022/02/07 02:54:53;;;;;;;36.97;22.17;;;;;;;1.99;54.07;100820.31;2081452;28;20176;-67
2022/02/07 02:55:53;;;;;;;39.17;22.43;;;;;;;1.94;53.89;100805.03;2082058;28;20209;-67
2022/02/07 02:56:54;;;;;;;39.17;22.00;;;;;;;1.99;53.91;100814.84;2081733;28;20645;-67
2022/02/07 02:57:55;;;;;;;44.77;23.87;;;;;;;1.52;54.07;100740.81;2082323;28;20259;-67
2022/02/07 02:58:55;;;;;;;48.17;27.90;;;;;;;0.53;55.20;100580.25;2082256;28;20203;-67
2022/02/07 02:59:55;;;;;;;41.70;26.83;;;;;;;2.04;55.79;100809.84;2081763;28;20189;-67
2022/02/07 03:00:56;;;;;;;45.30;27.20;;;;;;;2.07;56.09;100800.13;2081687;28;20218;-67
2022/02/07 03:01:57;;;;;;;44.87;24.93;;;;;;;2.12;55.40;100794.31;2082171;28;20177;-67
2022/02/07 03:02:58;;;;;;;39.27;24.27;;;;;;;2.13;54.63;100791.22;2082265;28;20188;-67
2022/02/07 03:03:58;;;;;;;48.10;27.92;;;;;;;2.18;55.14;100799.09;2082342;28;20177;-67
2022/02/07 03:04:59;;;;;;;40.67;26.27;;;;;;;2.21;55.50;100801.06;2080825;28;20754;-67
2022/02/07 03:05:59;;;;;;;41.77;26.40;;;;;;;2.24;55.34;100800.34;2082363;28;20218;-66
2022/02/07 03:07:00;;;;;;;41.53;27.03;;;;;;;1.64;56.32;100694.16;2081713;28;20173;-67
2022/02/07 03:08:01;;;;;;;38.33;25.90;;;;;;;2.33;56.93;100795.38;2082282;28;20184;-67
2022/02/07 03:09:01;;;;;;;39.87;26.00;;;;;;;2.13;56.66;100763.09;2082005;28;20197;-67
2022/02/07 03:10:03;;;;;;;40.17;25.97;;;;;;;2.20;56.37;100768.63;2082240;28;20238;-67
2022/02/07 03:11:09;;;;;;;41.47;26.02;;;;;;;2.40;57.29;100789.19;2081357;28;20231;-67
2022/02/07 03:12:10;;;;;;;36.70;25.20;;;;;;;2.45;57.43;100788.84;2082318;28;20169;-67
2022/02/07 03:14:20;;;;;;;41.87;26.43;;;;;;;2.45;57.09;100781.44;2082332;28;20601;-67
2022/02/07 03:16:40;;;;;;;41.20;27.15;;;;;;;2.42;57.77;100782.19;2081666;28;20569;-67
2022/02/07 03:17:40;;;;;;;42.93;27.97;;;;;;;2.47;58.41;100784.59;2082113;28;20658;-67
2022/02/07 03:18:41;;;;;;;41.80;29.30;;;;;;;2.42;57.95;100773.97;2082065;28;20185;-67
2022/02/07 03:19:41;;;;;;;44.37;29.30;;;;;;;2.34;57.47;100749.66;2082267;28;20569;-67
2022/02/07 03:20:42;;;;;;;41.60;28.53;;;;;;;1.86;57.07;100668.69;2081349;28;20455;-67
2022/02/07 03:21:44;;;;;;;44.00;30.37;;;;;;;2.44;57.33;100754.47;2081697;28;20239;-67
2022/02/07 03:22:44;;;;;;;46.47;29.83;;;;;;;2.53;56.86;100772.19;2081907;28;20662;-67
2022/02/07 03:23:45;;;;;;;43.03;28.40;;;;;;;2.46;57.17;100744.72;2082082;28;20177;-67
2022/02/07 03:24:45;;;;;;;43.90;29.10;;;;;;;2.57;56.85;100769.47;2081619;28;20543;-67
2022/02/07 03:25:46;;;;;;;44.80;28.70;;;;;;;2.34;56.67;100725.06;2081362;28;20311;-67
2022/02/07 03:26:47;;;;;;;42.67;28.87;;;;;;;2.51;56.67;100763.53;2081404;28;20181;-67
2022/02/07 03:27:47;;;;;;;41.03;28.67;;;;;;;2.58;56.70;100760.88;2082022;28;20184;-67
2022/02/07 03:28:48;;;;;;;41.53;28.53;;;;;;;1.43;56.66;100590.88;2085089;28;20661;-67
2022/02/07 03:29:49;;;;;;;44.27;27.67;;;;;;;1.93;56.88;100685.16;2089601;28;20651;-67
2022/02/07 03:30:50;;;;;;;40.83;26.83;;;;;;;2.04;55.82;100664.19;2089724;28;20508;-67
2022/02/07 03:31:50;;;;;;;41.40;26.60;;;;;;;2.56;56.28;100751.50;2089864;28;20262;-67
2022/02/07 03:32:51;;;;;;;46.53;27.20;;;;;;;2.56;55.99;100744.06;2090181;28;20184;-67
2022/02/07 03:33:51;;;;;;;39.97;25.83;;;;;;;2.59;55.68;100748.78;2090389;28;20184;-67
2022/02/07 03:34:52;;;;;;;36.33;24.00;;;;;;;2.62;55.35;100749.97;2089601;28;20207;-67
2022/02/07 03:35:52;;;;;;;39.37;25.80;;;;;;;2.63;55.15;100751.56;2089894;28;20669;-67
2022/02/07 03:36:53;;;;;;;39.77;25.47;;;;;;;2.18;55.47;100678.00;2089230;28;20192;-67
2022/02/07 03:37:54;;;;;;;38.87;23.67;;;;;;;2.66;54.91;100751.56;2090215;28;20181;-67
2022/02/07 03:38:54;;;;;;;32.87;22.40;;;;;;;2.51;54.96;100722.50;2090115;28;20177;-67
2022/02/07 03:39:55;;;;;;;33.03;20.73;;;;;;;2.69;54.62;100741.84;2090091;28;20306;-67
2022/02/07 03:40:55;;;;;;;29.90;20.93;;;;;;;2.68;54.12;100738.28;2089786;28;20302;-67
2022/02/07 03:41:56;;;;;;;34.23;20.87;;;;;;;2.58;54.79;100733.50;2089624;28;20223;-67
2022/02/07 03:42:57;;;;;;;34.33;21.80;;;;;;;2.58;54.66;100738.22;2090012;28;20188;-67
2022/02/07 03:43:57;;;;;;;32.30;21.33;;;;;;;2.65;54.16;100738.25;2090111;28;20180;-67
2022/02/07 03:44:58;;;;;;;29.37;20.67;;;;;;;2.63;54.22;100735.91;2089610;28;20185;-67
2022/02/07 03:46:01;;;;;;;31.17;21.07;;;;;;;2.52;54.16;100729.53;2090246;28;20184;-67
2022/02/07 03:47:02;;;;;;;32.30;22.00;;;;;;;2.65;54.65;100736.34;2088874;28;20561;-67
2022/02/07 03:48:03;;;;;;;33.92;22.23;;;;;;;2.65;54.54;100736.34;2090239;28;20180;-67
2022/02/07 03:49:03;;;;;;;32.47;21.90;;;;;;;2.54;54.39;100751.06;2089898;28;20184;-67
2022/02/07 03:50:05;;;;;;;34.13;23.10;;;;;;;2.09;54.69;100672.84;2090302;28;20175;-67
2022/02/07 03:51:06;;;;;;;35.58;22.65;;;;;;;2.50;54.41;100731.88;2089747;28;20179;-67
2022/02/07 03:52:08;;;;;;;34.53;22.73;;;;;;;2.38;54.78;100734.09;2090051;28;20215;-67
2022/02/07 03:53:09;;;;;;;32.63;20.77;;;;;;;2.28;54.76;100737.50;2089628;28;20184;-67
2022/02/07 03:54:09;;;;;;;33.00;21.27;;;;;;;2.31;54.71;100739.50;2090326;28;20180;-67
2022/02/07 03:55:10;;;;;;;33.53;21.73;;;;;;;2.32;54.44;100749.25;2089399;28;20195;-67
2022/02/07 03:56:11;;;;;;;33.63;21.30;;;;;;;1.82;54.32;100673.31;2090133;28;20623;-67
2022/02/07 03:57:12;;;;;;;30.00;20.97;;;;;;;2.32;54.77;100743.78;2089065;28;20577;-67
2022/02/07 03:58:12;;;;;;;30.40;21.17;;;;;;;2.35;54.94;100740.28;2089521;28;20180;-68
2022/02/07 03:59:13;;;;;;;30.27;20.93;;;;;;;2.37;54.71;100741.50;2089912;28;20180;-67
2022/02/07 04:00:14;;;;;;;32.60;20.87;;;;;;;2.38;54.39;100739.56;2090155;28;20606;-67
2022/02/07 04:01:17;;;;;;;31.02;21.42;;;;;;;2.35;54.62;100732.09;2089528;28;20176;-67
2022/02/07 04:02:19;;;;;;;33.65;21.02;;;;;;;2.38;54.54;100737.63;2090150;28;20176;-67
2022/02/07 04:03:25;;;;;;;33.42;20.80;;;;;;;2.41;54.64;100725.91;2089308;28;20229;-67
2022/02/07 04:04:25;;;;;;;33.75;21.13;;;;;;;2.43;54.54;100723.63;2090067;28;20164;-67
2022/02/07 04:06:45;;;;;;;31.70;20.10;;;;;;;1.86;54.77;100623.00;2089482;28;20645;-67
2022/02/07 04:07:46;;;;;;;32.37;20.50;;;;;;;2.51;54.31;100725.25;2089307;28;20646;-67
2022/02/07 04:08:49;;;;;;;32.83;20.23;;;;;;;2.50;54.41;100712.72;2088651;28;20176;-67
2022/02/07 04:09:53;;;;;;;31.90;20.23;;;;;;;2.15;54.01;100656.88;2089282;28;20275;-67
2022/02/07 04:12:03;;;;;;;29.77;19.20;;;;;;;2.51;53.90;100714.31;2089931;28;20246;-67
2022/02/07 04:13:05;;;;;;;28.05;18.80;;;;;;;2.53;54.96;100709.25;2089160;28;20558;-67
2022/02/07 04:14:06;;;;;;;27.50;18.50;;;;;;;2.57;54.56;100712.03;2089094;28;20271;-67
2022/02/07 04:15:08;;;;;;;27.00;18.27;;;;;;;1.64;54.45;100576.72;2089191;28;20670;-67
2022/02/07 04:16:09;;;;;;;27.63;18.02;;;;;;;2.56;54.07;100711.22;2090071;28;20673;-67
2022/02/07 04:17:14;;;;;;;26.50;18.23;;;;;;;2.58;54.40;100719.06;2089416;28;20560;-67
2022/02/07 04:18:15;;;;;;;26.85;19.15;;;;;;;1.44;54.75;100548.00;2090002;28;20194;-67
2022/02/07 04:19:21;;;;;;;27.77;20.30;;;;;;;2.52;55.55;100731.50;2088838;28;20183;-67
2022/02/07 04:20:22;;;;;;;27.92;18.95;;;;;;;1.31;56.01;100557.59;2089729;28;20183;-67
2022/02/07 04:21:22;;;;;;;27.27;19.27;;;;;;;2.42;55.82;100723.97;2089713;28;20251;-67
2022/02/07 04:22:24;;;;;;;28.00;17.83;;;;;;;2.44;55.45;100718.91;2089859;28;20600;-67
2022/02/07 04:23:25;;;;;;;28.42;19.77;;;;;;;2.22;55.98;100704.22;2089872;28;20176;-67
2022/02/07 04:24:25;;;;;;;36.03;19.60;;;;;;;2.19;56.36;100721.38;2089440;28;20263;-67
2022/02/07 04:25:26;;;;;;;32.50;20.10;;;;;;;2.23;56.38;100722.22;2089145;28;20217;-67
2022/02/07 04:26:27;;;;;;;32.67;22.40;;;;;;;2.28;57.26;100715.63;2089490;28;20561;-67
2022/02/07 04:27:27;;;;;;;32.90;21.93;;;;;;;2.33;57.08;100716.09;2089643;28;20233;-67
2022/02/07 04:28:28;;;;;;;32.83;21.07;;;;;;;2.42;56.84;100713.03;2089920;28;20200;-68
2022/02/07 04:29:28;;;;;;;29.70;20.50;;;;;;;2.48;56.85;100714.28;2089348;28;20177;-67
2022/02/07 04:30:29;;;;;;;31.40;20.23;;;;;;;2.46;55.97;100695.50;2089320;28;20192;-67
2022/02/07 04:31:30;;;;;;;29.83;21.00;;;;;;;2.59;55.98;100710.47;2089781;28;20198;-67
2022/02/07 04:32:30;;;;;;;35.50;20.40;;;;;;;1.92;55.71;100591.47;2089950;28;20226;-67
2022/02/07 04:33:31;;;;;;;34.20;20.97;;;;;;;2.63;55.95;100700.34;2088932;28;20250;-67
2022/02/07 04:34:31;;;;;;;31.23;21.07;;;;;;;2.52;55.87;100682.28;2088754;28;20394;-67
2022/02/07 04:35:32;;;;;;;31.30;20.87;;;;;;;2.66;55.76;100696.84;2089097;28;20608;-67
2022/02/07 04:36:33;;;;;;;29.27;20.30;;;;;;;2.69;56.42;100706.25;2088657;28;20184;-67
2022/02/07 04:37:33;;;;;;;30.63;20.10;;;;;;;2.64;55.83;100677.31;2089349;28;20242;-67
2022/02/07 04:38:34;;;;;;;30.97;19.47;;;;;;;2.76;55.59;100689.91;2089875;28;20247;-67
2022/02/07 04:39:34;;;;;;;34.60;20.47;;;;;;;2.78;56.15;100702.03;2089709;28;20634;-67
2022/02/07 04:40:35;;;;;;;31.90;20.30;;;;;;;2.81;55.68;100697.75;2088630;28;20213;-67
2022/02/07 04:41:40;;;;;;;28.03;19.17;;;;;;;2.79;55.49;100695.44;2089490;28;20303;-67
2022/02/07 04:42:40;;;;;;;31.83;19.63;;;;;;;1.81;55.86;100555.03;2089595;28;20187;-67
2022/02/07 04:43:50;;;;;;;30.50;19.50;;;;;;;2.71;55.48;100671.09;2089794;28;20182;-67
2022/02/07 04:45:09;;;;;;;31.05;19.48;;;;;;;2.80;55.53;100677.03;2088966;28;20670;-67
2022/02/07 04:50:40;;;;;;;32.08;20.45;;;;;;;2.86;54.97;100664.56;2065373;28;20202;-67
2022/02/07 04:53:15;;;;;;;28.52;18.38;;;;;;;2.83;53.70;100654.41;2081430;28;20324;-67
2022/02/07 05:01:48;;;;;;;33.87;21.50;;;;;;;2.29;52.31;100622.28;2080282;28;20191;-67
2022/02/07 05:03:01;;;;;;;34.28;20.95;;;;;;;1.92;52.92;100599.66;2081036;28;20161;-66
2022/02/07 05:04:18;;;;;;;32.03;20.02;;;;;;;2.41;54.04;100637.63;2080672;28;20203;-65
2022/02/07 05:14:26;;;;;;;40.10;23.30;;;;;;;2.35;54.43;100652.78;2089422;28;20168;-66
2022/02/07 05:15:26;;;;;;;41.60;23.98;;;;;;;2.33;54.21;100644.19;2089429;28;20197;-66
2022/02/07 05:16:29;;;;;;;39.03;23.63;;;;;;;2.36;54.19;100637.97;2088459;28;20183;-66
2022/02/07 05:17:31;;;;;;;43.22;25.40;;;;;;;2.42;54.22;100636.47;2083885;28;20169;-66
2022/02/07 05:18:32;;;;;;;48.75;27.05;;;;;;;1.67;53.03;100510.41;2088643;28;20184;-66
2022/02/07 05:19:33;;;;;;;43.10;27.03;;;;;;;2.40;53.33;100622.34;2088986;28;20233;-66
2022/02/07 05:20:33;;;;;;;45.87;28.47;;;;;;;2.36;53.33;100608.66;2089233;28;20182;-66
2022/02/07 05:21:34;;;;;;;49.27;30.03;;;;;;;2.52;52.90;100630.31;2089338;28;20180;-66
2022/02/07 05:22:35;;;;;;;53.77;31.07;;;;;;;2.50;52.37;100632.59;2089107;28;20204;-66
2022/02/07 05:23:35;;;;;;;47.25;31.83;;;;;;;2.34;52.36;100593.78;2089162;28;20264;-66
2022/02/07 05:24:36;;;;;;;54.03;35.43;;;;;;;2.45;52.66;100622.00;2089057;28;20180;-67
2022/02/07 05:25:36;;;;;;;47.47;31.50;;;;;;;2.51;52.11;100621.28;2088968;28;20180;-66
2022/02/07 05:26:37;;;;;;;46.27;30.60;;;;;;;2.49;51.90;100622.84;2089027;28;20172;-66
2022/02/07 05:27:37;;;;;;;51.20;32.20;;;;;;;2.35;52.14;100600.81;2089460;28;20175;-66
2022/02/07 05:28:38;;;;;;;54.43;34.13;;;;;;;2.48;52.06;100624.81;2089269;28;20259;-66
2022/02/07 05:29:39;;;;;;;59.13;35.53;;;;;;;2.05;51.78;100559.19;2089491;28;20615;-66
2022/02/07 05:30:39;;;;;;;55.50;33.23;;;;;;;2.52;51.93;100624.84;2088993;28;20258;-66
2022/02/07 05:31:40;;;;;;;51.00;31.90;;;;;;;2.57;51.77;100627.22;2089296;28;20534;-66
2022/02/07 05:32:40;;;;;;;43.53;30.67;;;;;;;2.57;51.71;100613.53;2089457;28;20186;-66
2022/02/07 05:33:41;;;;;;;48.10;30.57;;;;;;;2.64;51.88;100622.59;2088644;28;20259;-66
2022/02/07 05:34:42;;;;;;;52.40;29.80;;;;;;;2.64;51.87;100619.84;2089012;28;20565;-66
2022/02/07 05:35:42;;;;;;;52.27;31.13;;;;;;;2.64;51.52;100619.84;2089220;28;20180;-65
2022/02/07 05:36:45;;;;;;;49.60;30.80;;;;;;;2.61;52.08;100617.88;2087332;28;20430;-65
2022/02/07 05:37:45;;;;;;;51.47;29.35;;;;;;;2.65;52.65;100615.16;2084961;28;20208;-66
2022/02/07 05:38:49;;;;;;;49.77;29.83;;;;;;;2.09;52.71;100527.19;2086529;28;20683;-66
2022/02/07 05:39:54;;;;;;;47.33;29.27;;;;;;;2.64;52.74;100614.38;2086027;28;20401;-64
2022/02/07 05:41:00;;;;;;;49.97;29.58;;;;;;;2.64;53.19;100599.91;2082813;28;20360;-64
2022/02/07 05:42:05;;;;;;;47.40;29.98;;;;;;;2.58;53.01;100594.00;2084869;28;20217;-67
2022/02/07 05:43:08;;;;;;;51.88;28.95;;;;;;;2.62;53.41;100622.16;2087885;28;20183;-67
2022/02/07 05:44:09;;;;;;;53.45;29.75;;;;;;;2.53;53.18;100596.31;2087315;28;20187;-66
2022/02/07 05:45:09;;;;;;;50.30;29.93;;;;;;;2.67;53.39;100616.34;2088383;28;20219;-65
2022/02/07 05:46:10;;;;;;;55.67;29.43;;;;;;;2.65;53.60;100648.78;2088858;28;20169;-64
2022/02/07 05:47:11;;;;;;;57.70;29.73;;;;;;;2.75;53.46;100623.47;2087493;28;20419;-66
2022/02/07 05:48:14;;;;;;;59.28;29.80;;;;;;;2.58;53.44;100576.81;2083691;28;20181;-65
2022/02/07 05:49:17;;;;;;;53.60;30.67;;;;;;;2.84;53.53;100618.44;2080693;28;20279;-65
2022/02/07 05:50:17;;;;;;;53.60;29.42;;;;;;;2.89;53.46;100636.44;2082591;28;20176;-65
2022/02/07 05:51:18;;;;;;;49.77;30.80;;;;;;;2.99;53.44;100622.81;2087466;28;20791;-64
2022/02/07 05:52:18;;;;;;;58.27;33.40;;;;;;;2.83;53.54;100591.44;2083825;28;20183;-64
2022/02/07 05:53:19;;;;;;;54.47;34.20;;;;;;;2.62;53.46;100583.09;2088224;28;20184;-67
2022/02/07 05:54:19;;;;;;;58.67;31.73;;;;;;;2.83;53.61;100589.47;2088646;28;20207;-66
2022/02/07 05:55:20;;;;;;;44.10;26.70;;;;;;;2.91;53.58;100604.78;2088539;28;20181;-67
2022/02/07 05:56:20;;;;;;;43.87;27.17;;;;;;;2.67;52.93;100558.88;2088952;28;20184;-66
2022/02/07 05:57:21;;;;;;;44.20;27.97;;;;;;;2.95;52.93;100604.81;2081960;28;20839;-66
2022/02/07 05:58:22;;;;;;;45.63;27.13;;;;;;;2.46;52.88;100528.66;2080059;28;20259;-64
2022/02/07 05:59:22;;;;;;;44.43;28.23;;;;;;;3.01;53.57;100598.59;2077649;28;20173;-65
2022/02/07 06:00:23;;;;;;;36.93;24.60;;;;;;;3.07;54.82;100601.75;2087347;28;20172;-68
2022/02/07 06:01:24;;;;;;;37.23;26.50;;;;;;;3.09;55.30;100594.72;2087565;28;20271;-66
2022/02/07 06:02:24;;;;;;;42.17;26.07;;;;;;;2.56;54.44;100506.06;2088760;28;20553;-61
2022/02/07 06:03:25;;;;;;;39.73;24.47;;;;;;;3.13;54.11;100584.59;2088921;28;20176;-66
2022/02/07 06:04:25;;;;;;;34.70;22.43;;;;;;;3.15;54.76;100592.44;2089158;28;20168;-66
2022/02/07 06:05:26;;;;;;;38.40;23.67;;;;;;;3.20;54.79;100595.59;2088840;28;20507;-67
2022/02/07 06:06:26;;;;;;;31.80;21.33;;;;;;;2.99;55.52;100550.88;2089049;28;20787;-67
2022/02/07 06:07:27;;;;;;;38.37;23.13;;;;;;;2.52;55.14;100472.41;2089263;28;20204;-67
2022/02/07 06:08:29;;;;;;;31.90;21.50;;;;;;;2.49;54.87;100486.88;2088366;28;20326;-66
2022/02/07 06:09:30;;;;;;;34.72;22.45;;;;;;;3.39;54.90;100591.78;2088766;28;20649;-66
2022/02/07 06:10:31;;;;;;;30.02;20.35;;;;;;;2.87;55.13;100515.63;2089279;28;20737;-64
2022/02/07 06:11:32;;;;;;;27.57;18.90;;;;;;;2.78;54.58;100487.81;2088645;28;20611;-64
2022/02/07 06:12:34;;;;;;;26.97;18.83;;;;;;;2.47;54.00;100436.47;2088709;28;20187;-64
2022/02/07 06:13:37;;;;;;;27.75;18.25;;;;;;;2.33;53.55;100419.97;2089310;28;20187;-64
2022/02/07 06:14:37;;;;;;;27.05;18.80;;;;;;;3.53;54.15;100595.34;2088963;28;20176;-68
2022/02/07 06:15:38;;;;;;;26.07;17.50;;;;;;;3.50;54.31;100595.34;2089366;28;20172;-67
2022/02/07 06:16:38;;;;;;;26.10;18.13;;;;;;;3.53;53.54;100600.81;2086980;28;20215;-64
2022/02/07 06:17:40;;;;;;;25.90;16.97;;;;;;;3.63;53.57;100613.78;2088546;28;20658;-66
2022/02/07 06:18:41;;;;;;;23.77;16.95;;;;;;;3.73;53.41;100593.84;2088171;28;20176;-67
2022/02/07 06:19:42;;;;;;;30.17;18.43;;;;;;;3.44;53.72;100553.06;2087339;28;20187;-66
2022/02/07 06:20:42;;;;;;;30.33;20.08;;;;;;;3.52;52.37;100544.47;2087145;28;20200;-62
2022/02/07 06:21:43;;;;;;;35.53;22.03;;;;;;;3.94;52.03;100599.38;2089318;28;20180;-63